createdAt,value
2015-09-09T00:00:10.273Z,96127
2015-09-09T00:00:28.867Z,96133
2015-09-09T00:00:47.307Z,96133
2015-09-09T00:01:05.869Z,96127
2015-09-09T00:01:24.447Z,96133
2015-09-09T00:01:42.965Z,96138
2015-09-09T00:02:01.387Z,96127
2015-09-09T00:02:19.855Z,96130
2015-09-09T00:02:38.371Z,96127
2015-09-09T00:02:56.764Z,96122
2015-09-09T00:03:15.217Z,96128
2015-09-09T00:03:32.998Z,96122
2015-09-09T00:03:51.562Z,96130
2015-09-09T00:04:10.171Z,96125
2015-09-09T00:04:28.546Z,96119
2015-09-09T00:04:47.158Z,96124
2015-09-09T00:05:05.611Z,96116
2015-09-09T00:05:24.143Z,96127
2015-09-09T00:05:42.565Z,96128
2015-09-09T00:06:00.972Z,96122
2015-09-09T00:06:19.581Z,96120
2015-09-09T00:06:38.050Z,96122
2015-09-09T00:06:56.506Z,96125
2015-09-09T00:07:14.912Z,96122
2015-09-09T00:07:33.444Z,96127
2015-09-09T00:07:51.866Z,96122
2015-09-09T00:08:10.398Z,96124
2015-09-09T00:08:28.866Z,96127
2015-09-09T00:08:47.276Z,96122
2015-09-09T00:09:05.666Z,96127
2015-09-09T00:09:24.073Z,96122
2015-09-09T00:09:42.651Z,96121
2015-09-09T00:10:01.324Z,96116
2015-09-09T00:10:19.777Z,96130
2015-09-09T00:10:38.308Z,96124
2015-09-09T00:10:56.810Z,96124
2015-09-09T00:11:15.294Z,96113
2015-09-09T00:11:33.763Z,96119
2015-09-09T00:11:52.250Z,96119
2015-09-09T00:12:10.672Z,96116
2015-09-09T00:12:29.063Z,96114
2015-09-09T00:12:47.563Z,96117
2015-09-09T00:13:05.939Z,96119
2015-09-09T00:13:24.345Z,96120
2015-09-09T00:13:42.798Z,96115
2015-09-09T00:14:01.191Z,96115
2015-09-09T00:14:19.582Z,96115
2015-09-09T00:14:37.925Z,96110
2015-09-09T00:14:56.302Z,96115
2015-09-09T00:15:14.709Z,96115
2015-09-09T00:15:33.130Z,96112
2015-09-09T00:15:51.615Z,96115
2015-09-09T00:16:10.087Z,96118
2015-09-09T00:16:28.618Z,96109
2015-09-09T00:16:46.993Z,96107
2015-09-09T00:17:05.384Z,96115
2015-09-09T00:17:23.744Z,96113
2015-09-09T00:17:42.384Z,96108
2015-09-09T00:18:00.824Z,96108
2015-09-09T00:18:19.261Z,96113
2015-09-09T00:18:37.652Z,96110
2015-09-09T00:18:56.058Z,96110
2015-09-09T00:19:14.435Z,96102
2015-09-09T00:19:33.013Z,96108
2015-09-09T00:19:51.513Z,96116
2015-09-09T00:20:09.875Z,96117
2015-09-09T00:20:28.250Z,96106
2015-09-09T00:20:46.640Z,96109
2015-09-09T00:21:05.158Z,96106
2015-09-09T00:21:23.533Z,96106
2015-09-09T00:21:41.892Z,96109
2015-09-09T00:22:00.408Z,96097
2015-09-09T00:22:18.863Z,96100
2015-09-09T00:22:37.254Z,96103
2015-09-09T00:22:55.676Z,96101
2015-09-09T00:23:14.100Z,96106
2015-09-09T00:23:32.521Z,96106
2015-09-09T00:23:50.881Z,96101
2015-09-09T00:24:09.320Z,96106
2015-09-09T00:24:27.727Z,96106
2015-09-09T00:24:46.102Z,96098
2015-09-09T00:25:04.508Z,96103
2015-09-09T00:25:22.979Z,96095
2015-09-09T00:25:41.400Z,96095
2015-09-09T00:25:59.822Z,96098
2015-09-09T00:26:18.309Z,96098
2015-09-09T00:26:36.668Z,96095
2015-09-09T00:26:55.387Z,96098
2015-09-09T00:27:13.779Z,96103
2015-09-09T00:27:32.186Z,96103
2015-09-09T00:27:50.670Z,96101
2015-09-09T00:28:09.186Z,96101
2015-09-09T00:28:27.610Z,96106
2015-09-09T00:28:46.031Z,96101
2015-09-09T00:29:04.485Z,96095
2015-09-09T00:29:22.861Z,96102
2015-09-09T00:29:41.501Z,96091
2015-09-09T00:30:00.204Z,96107
2015-09-09T00:30:18.676Z,96105
2015-09-09T00:30:37.051Z,96099
2015-09-09T00:30:55.285Z,96101
2015-09-09T00:31:13.676Z,96088
2015-09-09T00:31:32.240Z,96099
2015-09-09T00:31:50.677Z,96094
2015-09-09T00:32:09.161Z,96096
2015-09-09T00:32:27.539Z,96091
2015-09-09T00:32:45.930Z,96099
2015-09-09T00:33:04.305Z,96097
2015-09-09T00:33:22.698Z,96086
2015-09-09T00:33:41.073Z,96097
2015-09-09T00:33:59.432Z,96105
2015-09-09T00:34:17.807Z,96096
2015-09-09T00:34:36.246Z,96107
2015-09-09T00:34:54.792Z,96096
2015-09-09T00:35:13.183Z,96093
2015-09-09T00:35:31.655Z,96099
2015-09-09T00:35:50.061Z,96085
2015-09-09T00:36:08.483Z,96094
2015-09-09T00:36:26.921Z,96091
2015-09-09T00:36:45.578Z,96100
2015-09-09T00:37:04.046Z,96097
2015-09-09T00:37:22.406Z,96094
2015-09-09T00:37:40.815Z,96089
2015-09-09T00:37:59.190Z,96100
2015-09-09T00:38:17.596Z,96100
2015-09-09T00:38:36.004Z,96105
2015-09-09T00:38:54.379Z,96097
2015-09-09T00:39:12.800Z,96100
2015-09-09T00:39:31.240Z,96092
2015-09-09T00:39:49.631Z,96090
2015-09-09T00:40:08.131Z,96098
2015-09-09T00:40:26.506Z,96096
2015-09-09T00:40:44.915Z,96096
2015-09-09T00:41:03.290Z,96101
2015-09-09T00:41:21.712Z,96090
2015-09-09T00:41:40.229Z,96096
2015-09-09T00:41:58.698Z,96101
2015-09-09T00:42:17.089Z,96101
2015-09-09T00:42:35.465Z,96098
2015-09-09T00:42:53.996Z,96093
2015-09-09T00:43:12.480Z,96103
2015-09-09T00:43:30.902Z,96098
2015-09-09T00:43:49.279Z,96098
2015-09-09T00:44:07.717Z,96095
2015-09-09T00:44:26.185Z,96098
2015-09-09T00:44:44.750Z,96101
2015-09-09T00:45:03.125Z,96096
2015-09-09T00:45:21.578Z,96082
2015-09-09T00:45:40.002Z,96093
2015-09-09T00:45:58.580Z,96079
2015-09-09T00:46:17.033Z,96093
2015-09-09T00:46:35.408Z,96099
2015-09-09T00:46:53.941Z,96088
2015-09-09T00:47:12.395Z,96093
2015-09-09T00:47:30.895Z,96090
2015-09-09T00:47:49.506Z,96093
2015-09-09T00:48:07.865Z,96091
2015-09-09T00:48:26.272Z,96091
2015-09-09T00:48:44.758Z,96094
2015-09-09T00:49:03.195Z,96093
2015-09-09T00:49:21.586Z,96085
2015-09-09T00:49:40.026Z,96085
2015-09-09T00:49:58.510Z,96094
2015-09-09T00:50:16.932Z,96088
2015-09-09T00:50:35.432Z,96091
2015-09-09T00:50:53.871Z,96085
2015-09-09T00:51:12.309Z,96091
2015-09-09T00:51:30.762Z,96097
2015-09-09T00:51:49.154Z,96098
2015-09-09T00:52:07.497Z,96092
2015-09-09T00:52:26.216Z,96086
2015-09-09T00:52:44.766Z,96088
2015-09-09T00:53:03.250Z,96097
2015-09-09T00:53:21.657Z,96092
2015-09-09T00:53:40.203Z,96078
2015-09-09T00:53:58.612Z,96092
2015-09-09T00:54:17.002Z,96086
2015-09-09T00:54:35.362Z,96086
2015-09-09T00:54:53.925Z,96087
2015-09-09T00:55:12.285Z,96090
2015-09-09T00:55:30.691Z,96092
2015-09-09T00:55:49.131Z,96087
2015-09-09T00:56:07.663Z,96079
2015-09-09T00:56:26.178Z,96084
2015-09-09T00:56:44.694Z,96084
2015-09-09T00:57:03.055Z,96074
2015-09-09T00:57:21.415Z,96095
2015-09-09T00:57:39.836Z,96083
2015-09-09T00:57:58.182Z,96089
2015-09-09T00:58:16.698Z,96089
2015-09-09T00:58:35.088Z,96089
2015-09-09T00:58:53.573Z,96089
2015-09-09T00:59:12.012Z,96087
2015-09-09T00:59:30.528Z,96081
2015-09-09T00:59:48.934Z,96087
2015-09-09T01:00:07.529Z,96087
2015-09-09T01:00:26.060Z,96084
2015-09-09T01:00:44.466Z,96081
2015-09-09T01:01:02.954Z,96074
2015-09-09T01:01:21.344Z,96082
2015-09-09T01:01:39.704Z,96079
2015-09-09T01:01:58.110Z,96082
2015-09-09T01:02:16.550Z,96079
2015-09-09T01:02:35.190Z,96082
2015-09-09T01:02:53.784Z,96074
2015-09-09T01:03:12.161Z,96079
2015-09-09T01:03:30.583Z,96077
2015-09-09T01:03:49.130Z,96079
2015-09-09T01:04:07.756Z,96078
2015-09-09T01:04:26.146Z,96063
2015-09-09T01:04:44.599Z,96074
2015-09-09T01:05:03.006Z,96081
2015-09-09T01:05:21.508Z,96077
2015-09-09T01:05:39.914Z,96077
2015-09-09T01:05:58.273Z,96068
2015-09-09T01:06:16.838Z,96068
2015-09-09T01:06:35.213Z,96063
2015-09-09T01:06:53.619Z,96071
2015-09-09T01:07:11.996Z,96079
2015-09-09T01:07:30.449Z,96070
2015-09-09T01:07:48.902Z,96070
2015-09-09T01:08:07.309Z,96076
2015-09-09T01:08:25.857Z,96077
2015-09-09T01:08:44.232Z,96073
2015-09-09T01:09:02.686Z,96075
2015-09-09T01:09:21.281Z,96075
2015-09-09T01:09:39.938Z,96069
2015-09-09T01:09:58.531Z,96079
2015-09-09T01:10:17.128Z,96070
2015-09-09T01:10:35.566Z,96069
2015-09-09T01:10:54.003Z,96072
2015-09-09T01:11:12.441Z,96064
2015-09-09T01:11:30.926Z,96061
2015-09-09T01:11:49.410Z,96071
2015-09-09T01:12:07.926Z,96059
2015-09-09T01:12:26.459Z,96067
2015-09-09T01:12:44.881Z,96068
2015-09-09T01:13:03.272Z,96068
2015-09-09T01:13:21.680Z,96065
2015-09-09T01:13:40.133Z,96065
2015-09-09T01:13:58.492Z,96062
2015-09-09T01:14:16.914Z,96059
2015-09-09T01:14:35.416Z,96070
2015-09-09T01:14:53.854Z,96067
2015-09-09T01:15:12.401Z,96064
2015-09-09T01:15:30.903Z,96067
2015-09-09T01:15:49.309Z,96071
2015-09-09T01:16:07.684Z,96065
2015-09-09T01:16:26.092Z,96056
2015-09-09T01:16:44.530Z,96067
2015-09-09T01:17:03.030Z,96067
2015-09-09T01:17:21.639Z,96064
2015-09-09T01:17:40.141Z,96059
2015-09-09T01:17:58.532Z,96061
2015-09-09T01:18:16.954Z,96059
2015-09-09T01:18:35.424Z,96062
2015-09-09T01:18:53.924Z,96061
2015-09-09T01:19:12.393Z,96056
2015-09-09T01:19:30.754Z,96061
2015-09-09T01:19:49.208Z,96070
2015-09-09T01:20:07.583Z,96068
2015-09-09T01:20:26.006Z,96071
2015-09-09T01:20:44.381Z,96065
2015-09-09T01:21:02.788Z,96059
2015-09-09T01:21:21.178Z,96059
2015-09-09T01:21:39.649Z,96062
2015-09-09T01:21:58.133Z,96065
2015-09-09T01:22:16.665Z,96059
2015-09-09T01:22:35.244Z,96064
2015-09-09T01:22:53.697Z,96065
2015-09-09T01:23:12.088Z,96046
2015-09-09T01:23:30.466Z,96060
2015-09-09T01:23:48.934Z,96054
2015-09-09T01:24:07.356Z,96054
2015-09-09T01:24:25.794Z,96059
2015-09-09T01:24:44.280Z,96062
2015-09-09T01:25:02.655Z,96051
2015-09-09T01:25:21.030Z,96057
2015-09-09T01:25:39.470Z,96059
2015-09-09T01:25:57.876Z,96056
2015-09-09T01:26:16.313Z,96048
2015-09-09T01:26:34.704Z,96056
2015-09-09T01:26:53.128Z,96064
2015-09-09T01:27:11.518Z,96061
2015-09-09T01:27:29.987Z,96059
2015-09-09T01:27:48.474Z,96056
2015-09-09T01:28:06.880Z,96050
2015-09-09T01:28:25.364Z,96053
2015-09-09T01:28:44.007Z,96056
2015-09-09T01:29:02.460Z,96051
2015-09-09T01:29:20.835Z,96048
2015-09-09T01:29:39.335Z,96054
2015-09-09T01:29:57.758Z,96046
2015-09-09T01:30:16.133Z,96043
2015-09-09T01:30:34.492Z,96046
2015-09-09T01:30:52.854Z,96049
2015-09-09T01:31:11.260Z,96052
2015-09-09T01:31:29.791Z,96046
2015-09-09T01:31:48.294Z,96052
2015-09-09T01:32:06.669Z,96049
2015-09-09T01:32:25.341Z,96057
2015-09-09T01:32:43.888Z,96047
2015-09-09T01:33:02.484Z,96050
2015-09-09T01:33:20.921Z,96047
2015-09-09T01:33:39.187Z,96048
2015-09-09T01:33:57.891Z,96050
2015-09-09T01:34:16.281Z,96047
2015-09-09T01:34:34.797Z,96036
2015-09-09T01:34:53.159Z,96050
2015-09-09T01:35:11.550Z,96053
2015-09-09T01:35:30.238Z,96042
2015-09-09T01:35:48.800Z,96044
2015-09-09T01:36:07.160Z,96041
2015-09-09T01:36:25.520Z,96050
2015-09-09T01:36:43.910Z,96049
2015-09-09T01:37:02.413Z,96050
2015-09-09T01:37:20.882Z,96044
2015-09-09T01:37:39.476Z,96052
2015-09-09T01:37:57.993Z,96050
2015-09-09T01:38:16.430Z,96049
2015-09-09T01:38:34.914Z,96052
2015-09-09T01:38:53.385Z,96061
2015-09-09T01:39:11.901Z,96047
2015-09-09T01:39:30.416Z,96058
2015-09-09T01:39:48.854Z,96048
2015-09-09T01:40:07.263Z,96048
2015-09-09T01:40:25.732Z,96053
2015-09-09T01:40:44.138Z,96050
2015-09-09T01:41:02.656Z,96045
2015-09-09T01:41:21.062Z,96053
2015-09-09T01:41:39.500Z,96039
2015-09-09T01:41:57.939Z,96053
2015-09-09T01:42:16.345Z,96059
2015-09-09T01:42:34.798Z,96053
2015-09-09T01:42:53.236Z,96051
2015-09-09T01:43:11.815Z,96045
2015-09-09T01:43:30.284Z,96056
2015-09-09T01:43:48.659Z,96048
2015-09-09T01:44:07.270Z,96051
2015-09-09T01:44:25.708Z,96056
2015-09-09T01:44:44.114Z,96056
2015-09-09T01:45:02.492Z,96051
2015-09-09T01:45:20.914Z,96053
2015-09-09T01:45:39.336Z,96050
2015-09-09T01:45:57.711Z,96053
2015-09-09T01:46:16.243Z,96050
2015-09-09T01:46:34.727Z,96048
2015-09-09T01:46:53.227Z,96051
2015-09-09T01:47:11.621Z,96038
2015-09-09T01:47:29.996Z,96037
2015-09-09T01:47:48.387Z,96043
2015-09-09T01:48:06.794Z,96051
2015-09-09T01:48:25.153Z,96051
2015-09-09T01:48:43.559Z,96050
2015-09-09T01:49:01.934Z,96048
2015-09-09T01:49:20.343Z,96051
2015-09-09T01:49:38.718Z,96048
2015-09-09T01:49:57.311Z,96052
2015-09-09T01:50:15.767Z,96054
2015-09-09T01:50:34.407Z,96052
2015-09-09T01:50:52.938Z,96052
2015-09-09T01:51:11.394Z,96046
2015-09-09T01:51:29.847Z,96046
2015-09-09T01:51:49.065Z,96043
2015-09-09T01:52:06.831Z,96046
2015-09-09T01:52:25.239Z,96046
2015-09-09T01:52:43.942Z,96048
2015-09-09T01:53:02.302Z,96054
2015-09-09T01:53:20.710Z,96045
2015-09-09T01:53:39.179Z,96048
2015-09-09T01:53:57.538Z,96046
2015-09-09T01:54:16.056Z,96043
2015-09-09T01:54:34.446Z,96051
2015-09-09T01:54:52.900Z,96049
2015-09-09T01:55:11.368Z,96038
2015-09-09T01:55:30.073Z,96044
2015-09-09T01:55:48.527Z,96043
2015-09-09T01:56:07.058Z,96038
2015-09-09T01:56:25.544Z,96041
2015-09-09T01:56:44.716Z,96040
2015-09-09T01:57:03.075Z,96049
2015-09-09T01:57:21.452Z,96051
2015-09-09T01:57:39.859Z,96048
2015-09-09T01:57:58.249Z,96040
2015-09-09T01:58:16.641Z,96051
2015-09-09T01:58:35.047Z,96040
2015-09-09T01:58:53.750Z,96048
2015-09-09T01:59:12.125Z,96046
2015-09-09T01:59:30.690Z,96038
2015-09-09T01:59:49.112Z,96029
2015-09-09T02:00:07.690Z,96040
2015-09-09T02:00:26.348Z,96035
2015-09-09T02:00:44.973Z,96038
2015-09-09T02:01:03.442Z,96032
2015-09-09T02:01:21.914Z,96033
2015-09-09T02:01:40.476Z,96035
2015-09-09T02:01:58.851Z,96035
2015-09-09T02:02:17.226Z,96044
2015-09-09T02:02:35.619Z,96033
2015-09-09T02:02:53.962Z,96033
2015-09-09T02:03:12.369Z,96028
2015-09-09T02:03:30.932Z,96044
2015-09-09T02:03:49.354Z,96039
2015-09-09T02:04:07.760Z,96031
2015-09-09T02:04:26.122Z,96036
2015-09-09T02:04:44.606Z,96028
2015-09-09T02:05:02.981Z,96025
2015-09-09T02:05:21.403Z,96033
2015-09-09T02:05:40.047Z,96031
2015-09-09T02:05:58.593Z,96031
2015-09-09T02:06:17.078Z,96025
2015-09-09T02:06:35.470Z,96036
2015-09-09T02:06:53.955Z,96033
2015-09-09T02:07:12.533Z,96036
2015-09-09T02:07:30.940Z,96031
2015-09-09T02:07:49.565Z,96025
2015-09-09T02:08:08.050Z,96031
2015-09-09T02:08:26.393Z,96031
2015-09-09T02:08:44.864Z,96028
2015-09-09T02:09:03.239Z,96036
2015-09-09T02:09:21.645Z,96028
2015-09-09T02:09:40.085Z,96031
2015-09-09T02:09:58.444Z,96039
2015-09-09T02:10:16.835Z,96031
2015-09-09T02:10:35.290Z,96031
2015-09-09T02:10:53.696Z,96023
2015-09-09T02:11:12.134Z,96023
2015-09-09T02:11:30.602Z,96020
2015-09-09T02:11:48.995Z,96026
2015-09-09T02:12:07.417Z,96020
2015-09-09T02:12:25.823Z,96018
2015-09-09T02:12:44.403Z,96026
2015-09-09T02:13:02.981Z,96023
2015-09-09T02:13:21.575Z,96026
2015-09-09T02:13:40.015Z,96021
2015-09-09T02:13:58.577Z,96026
2015-09-09T02:14:16.968Z,96018
2015-09-09T02:14:35.530Z,96023
2015-09-09T02:14:53.939Z,96029
2015-09-09T02:15:12.345Z,96026
2015-09-09T02:15:30.782Z,96021
2015-09-09T02:15:49.330Z,96024
2015-09-09T02:16:08.018Z,96026
2015-09-09T02:16:26.658Z,96027
2015-09-09T02:16:45.036Z,96021
2015-09-09T02:17:03.521Z,96021
2015-09-09T02:17:21.911Z,96032
2015-09-09T02:17:40.288Z,96026
2015-09-09T02:17:58.820Z,96024
2015-09-09T02:18:17.210Z,96026
2015-09-09T02:18:35.601Z,96015
2015-09-09T02:18:54.164Z,96018
2015-09-09T02:19:12.586Z,96015
2015-09-09T02:19:30.961Z,96012
2015-09-09T02:19:49.620Z,96017
2015-09-09T02:20:07.995Z,96020
2015-09-09T02:20:26.355Z,96017
2015-09-09T02:20:44.950Z,96026
2015-09-09T02:21:03.387Z,96020
2015-09-09T02:21:21.793Z,96023
2015-09-09T02:21:40.184Z,96020
2015-09-09T02:21:58.546Z,96029
2015-09-09T02:22:17.031Z,96029
2015-09-09T02:22:35.468Z,96023
2015-09-09T02:22:53.985Z,96023
2015-09-09T02:23:12.407Z,96021
2015-09-09T02:23:31.219Z,96021
2015-09-09T02:23:49.878Z,96030
2015-09-09T02:24:08.300Z,96027
2015-09-09T02:24:26.707Z,96021
2015-09-09T02:24:45.300Z,96021
2015-09-09T02:25:03.662Z,96026
2015-09-09T02:25:22.130Z,96018
2015-09-09T02:25:40.490Z,96026
2015-09-09T02:25:59.007Z,96027
2015-09-09T02:26:17.539Z,96027
2015-09-09T02:26:35.945Z,96021
2015-09-09T02:26:54.399Z,96026
2015-09-09T02:27:12.868Z,96026
2015-09-09T02:27:31.321Z,96032
2015-09-09T02:27:49.696Z,96029
2015-09-09T02:28:08.073Z,96026
2015-09-09T02:28:26.479Z,96029
2015-09-09T02:28:45.135Z,96029
2015-09-09T02:29:03.529Z,96029
2015-09-09T02:29:21.998Z,96029
2015-09-09T02:29:40.482Z,96031
2015-09-09T02:29:58.843Z,96028
2015-09-09T02:30:17.202Z,96031
2015-09-09T02:30:35.639Z,96031
2015-09-09T02:30:54.014Z,96034
2015-09-09T02:31:12.563Z,96026
2015-09-09T02:31:30.985Z,96034
2015-09-09T02:31:49.376Z,96029
2015-09-09T02:32:07.815Z,96029
2015-09-09T02:32:26.362Z,96021
2015-09-09T02:32:44.847Z,96029
2015-09-09T02:33:03.256Z,96032
2015-09-09T02:33:21.740Z,96026
2015-09-09T02:33:40.146Z,96026
2015-09-09T02:33:58.553Z,96029
2015-09-09T02:34:16.929Z,96023
2015-09-09T02:34:35.382Z,96018
2015-09-09T02:34:53.804Z,96026
2015-09-09T02:35:12.165Z,96017
2015-09-09T02:35:30.384Z,96023
2015-09-09T02:35:48.743Z,96026
2015-09-09T02:36:07.215Z,96026
2015-09-09T02:36:25.699Z,96029
2015-09-09T02:36:44.262Z,96021
2015-09-09T02:37:02.621Z,96018
2015-09-09T02:37:21.263Z,96027
2015-09-09T02:37:39.653Z,96027
2015-09-09T02:37:58.107Z,96022
2015-09-09T02:38:16.577Z,96025
2015-09-09T02:38:34.952Z,96019
2015-09-09T02:38:53.327Z,96025
2015-09-09T02:39:11.720Z,96022
2015-09-09T02:39:30.236Z,96025
2015-09-09T02:39:48.611Z,96016
2015-09-09T02:40:06.986Z,96022
2015-09-09T02:40:25.503Z,96022
2015-09-09T02:40:44.034Z,96027
2015-09-09T02:41:02.597Z,96027
2015-09-09T02:41:21.036Z,96029
2015-09-09T02:41:39.443Z,96024
2015-09-09T02:41:58.740Z,96026
2015-09-09T02:42:17.210Z,96027
2015-09-09T02:42:35.695Z,96019
2015-09-09T02:42:54.148Z,96018
2015-09-09T02:43:12.697Z,96016
2015-09-09T02:43:31.197Z,96016
2015-09-09T02:43:49.634Z,96030
2015-09-09T02:44:08.025Z,96022
2015-09-09T02:44:26.449Z,96019
2015-09-09T02:44:44.871Z,96011
2015-09-09T02:45:03.308Z,96020
2015-09-09T02:45:21.748Z,96025
2015-09-09T02:45:40.185Z,96019
2015-09-09T02:45:58.732Z,96022
2015-09-09T02:46:17.249Z,96017
2015-09-09T02:46:35.733Z,96022
2015-09-09T02:46:54.139Z,96022
2015-09-09T02:47:12.592Z,96028
2015-09-09T02:47:30.955Z,96020
2015-09-09T02:47:49.377Z,96017
2015-09-09T02:48:07.955Z,96025
2015-09-09T02:48:26.519Z,96019
2015-09-09T02:48:45.082Z,96020
2015-09-09T02:49:03.566Z,96017
2015-09-09T02:49:21.927Z,96017
2015-09-09T02:49:40.302Z,96028
2015-09-09T02:49:58.943Z,96014
2015-09-09T02:50:17.349Z,96025
2015-09-09T02:50:35.772Z,96026
2015-09-09T02:50:54.194Z,96012
2015-09-09T02:51:12.600Z,96026
2015-09-09T02:51:30.994Z,96018
2015-09-09T02:51:49.463Z,96023
2015-09-09T02:52:08.041Z,96026
2015-09-09T02:52:26.465Z,96023
2015-09-09T02:52:44.902Z,96026
2015-09-09T02:53:03.433Z,96018
2015-09-09T02:53:22.027Z,96013
2015-09-09T02:53:40.389Z,96018
2015-09-09T02:53:58.795Z,96021
2015-09-09T02:54:17.185Z,96024
2015-09-09T02:54:35.843Z,96023
2015-09-09T02:54:54.390Z,96021
2015-09-09T02:55:12.858Z,96024
2015-09-09T02:55:31.251Z,96018
2015-09-09T02:55:49.782Z,96015
2015-09-09T02:56:08.329Z,96024
2015-09-09T02:56:26.720Z,96024
2015-09-09T02:56:45.082Z,96018
2015-09-09T02:57:03.473Z,96024
2015-09-09T02:57:21.910Z,96015
2015-09-09T02:57:40.411Z,96018
2015-09-09T02:57:58.942Z,96016
2015-09-09T02:58:17.333Z,96016
2015-09-09T02:58:35.788Z,96024
2015-09-09T02:58:54.241Z,96016
2015-09-09T02:59:12.741Z,96016
2015-09-09T02:59:31.226Z,96013
2015-09-09T02:59:49.837Z,96021
2015-09-09T03:00:08.400Z,96019
2015-09-09T03:00:26.900Z,96022
2015-09-09T03:00:45.261Z,96016
2015-09-09T03:01:03.964Z,96029
2015-09-09T03:01:22.558Z,96016
2015-09-09T03:01:40.794Z,96018
2015-09-09T03:01:59.200Z,96013
2015-09-09T03:02:17.607Z,96024
2015-09-09T03:02:36.044Z,96018
2015-09-09T03:02:54.421Z,96007
2015-09-09T03:03:12.781Z,96024
2015-09-09T03:03:31.265Z,96018
2015-09-09T03:03:49.736Z,96021
2015-09-09T03:04:08.314Z,96016
2015-09-09T03:04:26.720Z,96013
2015-09-09T03:04:45.161Z,96013
2015-09-09T03:05:03.661Z,96016
2015-09-09T03:05:22.051Z,96007
2015-09-09T03:05:40.457Z,96010
2015-09-09T03:05:58.990Z,96010
2015-09-09T03:06:17.505Z,96012
2015-09-09T03:06:35.896Z,96010
2015-09-09T03:06:54.273Z,96010
2015-09-09T03:07:12.773Z,96010
2015-09-09T03:07:31.210Z,96015
2015-09-09T03:07:49.572Z,96002
2015-09-09T03:08:08.009Z,96015
2015-09-09T03:08:26.541Z,96007
2015-09-09T03:08:45.073Z,96013
2015-09-09T03:09:03.635Z,96013
2015-09-09T03:09:22.213Z,96013
2015-09-09T03:09:40.667Z,96008
2015-09-09T03:09:59.060Z,96016
2015-09-09T03:10:17.576Z,96019
2015-09-09T03:10:36.138Z,96013
2015-09-09T03:10:54.562Z,96013
2015-09-09T03:11:13.015Z,96008
2015-09-09T03:11:31.406Z,96013
2015-09-09T03:11:49.924Z,96008
2015-09-09T03:12:08.283Z,96010
2015-09-09T03:12:26.689Z,96010
2015-09-09T03:12:45.095Z,96010
2015-09-09T03:13:03.675Z,96010
2015-09-09T03:13:22.159Z,96013
2015-09-09T03:13:40.534Z,96008
2015-09-09T03:13:59.006Z,96013
2015-09-09T03:14:17.568Z,96014
2015-09-09T03:14:36.162Z,96024
2015-09-09T03:14:54.555Z,96022
2015-09-09T03:15:13.117Z,96011
2015-09-09T03:15:31.539Z,96021
2015-09-09T03:15:49.914Z,96016
2015-09-09T03:16:08.306Z,96013
2015-09-09T03:16:26.712Z,96013
2015-09-09T03:16:45.274Z,96016
2015-09-09T03:17:03.871Z,96018
2015-09-09T03:17:22.402Z,96016
2015-09-09T03:17:40.824Z,96024
2015-09-09T03:17:59.310Z,96019
2015-09-09T03:18:17.872Z,96016
2015-09-09T03:18:36.481Z,96017
2015-09-09T03:18:54.891Z,96022
2015-09-09T03:19:13.281Z,96025
2015-09-09T03:19:31.734Z,96017
2015-09-09T03:19:50.219Z,96012
2015-09-09T03:20:08.690Z,96015
2015-09-09T03:20:27.065Z,96021
2015-09-09T03:20:45.596Z,96026
2015-09-09T03:21:04.473Z,96020
2015-09-09T03:21:22.926Z,96009
2015-09-09T03:21:41.379Z,96012
2015-09-09T03:21:59.927Z,96020
2015-09-09T03:22:18.489Z,96012
2015-09-09T03:22:37.146Z,96015
2015-09-09T03:22:55.568Z,96021
2015-09-09T03:23:14.257Z,96020
2015-09-09T03:23:32.648Z,96004
2015-09-09T03:23:51.054Z,96009
2015-09-09T03:24:09.431Z,96012
2015-09-09T03:24:27.853Z,96020
2015-09-09T03:24:46.259Z,96024
2015-09-09T03:25:04.636Z,96021
2015-09-09T03:25:23.058Z,96015
2015-09-09T03:25:41.464Z,96015
2015-09-09T03:26:00.011Z,96018
2015-09-09T03:26:18.435Z,96005
2015-09-09T03:26:36.810Z,96021
2015-09-09T03:26:55.372Z,96013
2015-09-09T03:27:13.828Z,96010
2015-09-09T03:27:32.640Z,96021
2015-09-09T03:27:51.046Z,96015
2015-09-09T03:28:09.580Z,96013
2015-09-09T03:28:27.986Z,96016
2015-09-09T03:28:46.361Z,96016
2015-09-09T03:29:04.753Z,96004
2015-09-09T03:29:23.175Z,96010
2015-09-09T03:29:41.800Z,96012
2015-09-09T03:30:00.160Z,96015
2015-09-09T03:30:18.567Z,96009
2015-09-09T03:30:37.020Z,96012
2015-09-09T03:30:55.395Z,96004
2015-09-09T03:31:13.976Z,96015
2015-09-09T03:31:32.367Z,96012
2015-09-09T03:31:50.836Z,96018
2015-09-09T03:32:09.259Z,96004
2015-09-09T03:32:27.697Z,96010
2015-09-09T03:32:46.197Z,96004
2015-09-09T03:33:04.806Z,96007
2015-09-09T03:33:23.246Z,96007
2015-09-09T03:33:41.730Z,96012
2015-09-09T03:34:00.168Z,96015
2015-09-09T03:34:19.029Z,96010
2015-09-09T03:34:37.388Z,96013
2015-09-09T03:34:55.763Z,96010
2015-09-09T03:35:14.219Z,96008
2015-09-09T03:35:32.672Z,95997
2015-09-09T03:35:51.172Z,96009
2015-09-09T03:36:09.750Z,96008
2015-09-09T03:36:28.361Z,96006
2015-09-09T03:36:46.783Z,96013
2015-09-09T03:37:05.174Z,96013
2015-09-09T03:37:23.722Z,96005
2015-09-09T03:37:42.268Z,96005
2015-09-09T03:38:00.675Z,96002
2015-09-09T03:38:18.411Z,96005
2015-09-09T03:38:37.099Z,96001
2015-09-09T03:38:55.520Z,96007
2015-09-09T03:39:13.945Z,96007
2015-09-09T03:39:32.383Z,96005
2015-09-09T03:39:50.742Z,95996
2015-09-09T03:40:09.305Z,96004
2015-09-09T03:40:27.729Z,96012
2015-09-09T03:40:46.119Z,96001
2015-09-09T03:41:04.479Z,96004
2015-09-09T03:41:22.901Z,96012
2015-09-09T03:41:41.417Z,96005
2015-09-09T03:41:59.730Z,96013
2015-09-09T03:42:18.186Z,96013
2015-09-09T03:42:36.936Z,96005
2015-09-09T03:42:55.342Z,96010
2015-09-09T03:43:13.748Z,96004
2015-09-09T03:43:32.109Z,96015
2015-09-09T03:43:50.812Z,96007
2015-09-09T03:44:09.218Z,96015
2015-09-09T03:44:27.486Z,96007
2015-09-09T03:44:45.892Z,96010
2015-09-09T03:45:04.345Z,96007
2015-09-09T03:45:22.769Z,96010
2015-09-09T03:45:41.191Z,96018
2015-09-09T03:45:59.800Z,96016
2015-09-09T03:46:18.238Z,96013
2015-09-09T03:46:36.693Z,96018
2015-09-09T03:46:55.083Z,96013
2015-09-09T03:47:13.443Z,96016
2015-09-09T03:47:31.804Z,96005
2015-09-09T03:47:50.335Z,96013
2015-09-09T03:48:08.742Z,96013
2015-09-09T03:48:27.228Z,96016
2015-09-09T03:48:45.744Z,96016
2015-09-09T03:49:04.306Z,96018
2015-09-09T03:49:22.681Z,96007
2015-09-09T03:49:41.042Z,96015
2015-09-09T03:49:59.730Z,96021
2015-09-09T03:50:17.949Z,96012
2015-09-09T03:50:36.404Z,96009
2015-09-09T03:50:54.826Z,96023
2015-09-09T03:51:13.216Z,96020
2015-09-09T03:51:31.781Z,96012
2015-09-09T03:51:50.218Z,96015
2015-09-09T03:52:08.796Z,96012
2015-09-09T03:52:27.343Z,96010
2015-09-09T03:52:46.047Z,96021
2015-09-09T03:53:04.422Z,96012
2015-09-09T03:53:22.844Z,96015
2015-09-09T03:53:41.285Z,96012
2015-09-09T03:53:59.707Z,96015
2015-09-09T03:54:18.238Z,96007
2015-09-09T03:54:36.724Z,96004
2015-09-09T03:54:55.177Z,96006
2015-09-09T03:55:13.552Z,96009
2015-09-09T03:55:31.912Z,96004
2015-09-09T03:55:50.414Z,96012
2015-09-09T03:56:08.820Z,96015
2015-09-09T03:56:27.398Z,96015
2015-09-09T03:56:46.102Z,96009
2015-09-09T03:57:04.524Z,96017
2015-09-09T03:57:23.055Z,96003
2015-09-09T03:57:41.449Z,96007